Time;durP1;ratioP1;P1;durP2;ratioP2;P2;SDS_P1;SDS_P2;PMS_P1;PMS_P2;Temp;Humidity;BMP_temperature;BMP_pressure;BME280_temperature;BME280_humidity;BME280_pressure;Samples;Min_cycle;Max_cycle;Signal;HPM_P1;HPM_P2
2023/11/29 00:01:44;0.00;0.00;0.62;0.00;0.00;0.62;1.97;1.50;;;18.60;23.40;;;;;;2268651;61;20429;-60
2023/11/29 00:04:29;0.00;0.00;0.62;0.00;0.00;0.62;2.43;1.87;;;18.60;23.40;;;;;;2268612;61;20875;-60
2023/11/29 00:07:14;0.00;0.00;0.62;0.00;0.00;0.62;3.03;1.90;;;18.60;23.40;;;;;;2268994;61;20355;-60
2023/11/29 00:09:59;0.00;0.00;0.62;0.00;0.00;0.62;2.30;1.60;;;18.60;23.40;;;;;;2269017;61;20358;-59
2023/11/29 00:12:44;0.00;0.00;0.62;0.00;0.00;0.62;3.70;2.20;;;18.60;23.40;;;;;;2268219;61;20876;-60
2023/11/29 00:15:30;0.00;0.00;0.62;0.00;0.00;0.62;2.27;1.67;;;18.60;23.40;;;;;;2268814;61;20363;-59
2023/11/29 00:18:15;0.00;0.00;0.62;0.00;0.00;0.62;3.90;1.70;;;18.60;23.40;;;;;;2268689;61;20371;-60
2023/11/29 00:21:01;0.00;0.00;0.62;0.00;0.00;0.62;2.20;1.73;;;18.60;23.40;;;;;;2265588;61;20366;-61
2023/11/29 00:23:46;0.00;0.00;0.62;0.00;0.00;0.62;2.33;1.70;;;18.60;23.40;;;;;;2268610;61;20450;-62
2023/11/29 00:26:30;0.00;0.00;0.62;0.00;0.00;0.62;2.20;1.63;;;18.60;23.40;;;;;;2268545;61;20359;-59
2023/11/29 00:29:15;0.00;0.00;0.62;0.00;0.00;0.62;2.57;1.87;;;18.60;23.90;;;;;;2265542;61;20359;-57
2023/11/29 00:32:01;0.00;0.00;0.62;0.00;0.00;0.62;2.00;1.50;;;18.60;23.40;;;;;;2265274;61;20383;-61
2023/11/29 00:34:45;0.00;0.00;0.62;0.00;0.00;0.62;2.40;1.93;;;18.60;23.40;;;;;;2268485;61;20367;-61
2023/11/29 00:37:30;0.00;0.00;0.62;0.00;0.00;0.62;2.20;1.97;;;18.60;23.40;;;;;;2268986;61;20366;-62
2023/11/29 00:40:15;0.00;0.00;0.62;0.00;0.00;0.62;2.50;2.00;;;18.60;23.90;;;;;;2265542;61;20433;-60
2023/11/29 00:43:00;0.00;0.00;0.62;0.00;0.00;0.62;2.40;2.10;;;18.60;23.40;;;;;;2268065;61;20402;-61
2023/11/29 00:45:45;0.00;0.00;0.62;0.00;0.00;0.62;2.70;1.73;;;18.60;23.40;;;;;;2268576;61;20367;-62
2023/11/29 00:48:31;0.00;0.00;0.62;0.00;0.00;0.62;2.50;1.80;;;18.60;23.40;;;;;;2268473;61;20375;-59
2023/11/29 00:51:17;0.00;0.00;0.62;0.00;0.00;0.62;2.43;2.03;;;18.50;23.30;;;;;;2268878;61;20988;-57
2023/11/29 00:54:01;0.00;0.00;0.62;0.00;0.00;0.62;2.53;1.77;;;18.60;23.40;;;;;;2268574;61;20896;-57
2023/11/29 00:56:46;0.00;0.00;0.62;0.00;0.00;0.62;2.30;1.70;;;18.60;23.40;;;;;;2268379;61;20354;-59
2023/11/29 00:59:30;0.00;0.00;0.62;0.00;0.00;0.62;3.00;1.77;;;18.50;23.30;;;;;;2268672;61;20391;-60
2023/11/29 01:02:15;0.00;0.00;0.62;0.00;0.00;0.62;2.37;1.80;;;18.50;23.30;;;;;;2268387;61;20716;-61
2023/11/29 01:05:01;0.00;0.00;0.62;0.00;0.00;0.62;2.87;1.83;;;18.50;23.30;;;;;;2268433;61;20389;-58
2023/11/29 01:07:45;0.00;0.00;0.62;0.00;0.00;0.62;2.30;1.33;;;18.50;23.30;;;;;;2268890;61;20394;-64
2023/11/29 01:10:30;0.00;0.00;0.62;0.00;0.00;0.62;2.23;1.63;;;18.50;23.30;;;;;;2268335;61;20802;-60
2023/11/29 01:13:15;0.00;0.00;0.62;0.00;0.00;0.62;2.07;1.50;;;18.50;23.30;;;;;;2265249;61;20509;-61
2023/11/29 01:15:59;0.00;0.00;0.62;0.00;0.00;0.62;2.23;1.60;;;18.50;23.30;;;;;;2265629;61;20409;-61
2023/11/29 01:18:44;0.00;0.00;0.62;0.00;0.00;0.62;2.07;1.53;;;18.50;23.30;;;;;;2268339;61;20981;-59
2023/11/29 01:21:30;0.00;0.00;0.62;0.00;0.00;0.62;2.20;1.47;;;18.50;23.30;;;;;;2265412;61;20363;-59
2023/11/29 01:24:15;0.00;0.00;0.62;0.00;0.00;0.62;2.10;1.43;;;18.50;23.30;;;;;;2265395;61;20368;-56
2023/11/29 01:27:00;0.00;0.00;0.62;0.00;0.00;0.62;2.17;1.87;;;18.50;23.40;;;;;;2268576;61;20355;-61
2023/11/29 01:29:44;0.00;0.00;0.62;0.00;0.00;0.62;2.10;1.70;;;18.50;23.30;;;;;;2268665;61;20960;-62
2023/11/29 01:32:30;0.00;0.00;0.62;0.00;0.00;0.62;2.30;1.77;;;18.50;23.30;;;;;;2267294;61;20388;-58
2023/11/29 01:35:15;0.00;0.00;0.62;0.00;0.00;0.62;2.27;1.70;;;18.50;23.30;;;;;;2268610;61;20382;-58
2023/11/29 01:38:01;0.00;0.00;0.62;0.00;0.00;0.62;1.90;1.50;;;18.50;23.40;;;;;;2265471;61;20371;-62
2023/11/29 01:40:45;0.00;0.00;0.62;0.00;0.00;0.62;2.10;1.83;;;18.50;23.40;;;;;;2268409;61;20480;-61
2023/11/29 01:43:30;0.00;0.00;0.62;0.00;0.00;0.62;2.77;1.67;;;18.50;23.40;;;;;;2268235;61;20467;-57
2023/11/29 01:46:15;0.00;0.00;0.62;0.00;0.00;0.62;1.90;1.30;;;18.50;23.40;;;;;;2268609;61;20401;-59
2023/11/29 01:49:00;0.00;0.00;0.62;0.00;0.00;0.62;2.00;1.53;;;18.50;23.40;;;;;;2268585;61;20400;-56
2023/11/29 01:51:45;0.00;0.00;0.62;0.00;0.00;0.62;1.80;1.30;;;18.50;23.40;;;;;;2268211;61;20367;-59
2023/11/29 01:54:32;0.00;0.00;0.62;0.00;0.00;0.62;2.00;1.50;;;18.50;23.40;;;;;;2268184;61;20367;-57
2023/11/29 01:57:17;0.00;0.00;0.62;0.00;0.00;0.62;2.17;1.53;;;18.50;23.40;;;;;;2268463;61;20788;-60
2023/11/29 02:00:03;0.00;0.00;0.62;0.00;0.00;0.62;1.90;1.40;;;18.50;23.40;;;;;;2265257;61;20911;-59
2023/11/29 02:02:57;0.00;0.00;0.62;0.00;0.00;0.62;1.90;1.43;;;18.50;23.90;;;;;;2267814;61;20379;-57
2023/11/29 02:05:42;0.00;0.00;0.62;0.00;0.00;0.62;1.80;1.27;;;18.50;23.40;;;;;;2268378;61;20366;-60
2023/11/29 02:08:28;0.00;0.00;0.62;0.00;0.00;0.62;2.20;1.70;;;18.40;23.40;;;;;;2262322;61;20942;-62
2023/11/29 02:11:19;0.00;0.00;0.62;0.00;0.00;0.62;1.93;1.33;;;18.40;23.40;;;;;;2261806;61;20363;-55
2023/11/29 02:14:03;0.00;0.00;0.62;0.00;0.00;0.62;2.13;1.50;;;18.40;23.40;;;;;;2265004;61;20429;-61
2023/11/29 02:16:48;0.00;0.00;0.62;0.00;0.00;0.62;2.20;1.50;;;18.40;23.40;;;;;;2265132;61;20412;-61
2023/11/29 02:19:33;0.00;0.00;0.62;0.00;0.00;0.62;2.00;1.50;;;18.40;23.40;;;;;;2265367;61;20379;-61
2023/11/29 02:22:21;0.00;0.00;0.62;0.00;0.00;0.62;1.97;1.47;;;18.40;23.40;;;;;;2268071;61;20390;-61
2023/11/29 02:25:07;0.00;0.00;0.62;0.00;0.00;0.62;2.50;1.73;;;18.40;23.40;;;;;;2264982;61;20882;-62
2023/11/29 02:27:52;0.00;0.00;0.62;0.00;0.00;0.62;2.37;1.77;;;18.40;23.40;;;;;;2268601;61;20433;-60
2023/11/29 02:30:37;0.00;0.00;0.62;0.00;0.00;0.62;1.63;1.30;;;18.40;23.40;;;;;;2265272;61;20824;-60
2023/11/29 02:33:22;0.00;0.00;0.62;0.00;0.00;0.62;2.37;1.50;;;18.40;23.40;;;;;;2267761;61;20382;-61
2023/11/29 02:36:07;0.00;0.00;0.62;0.00;0.00;0.62;1.70;1.20;;;18.40;23.50;;;;;;2268362;61;20386;-57
2023/11/29 02:38:52;0.00;0.00;0.62;0.00;0.00;0.62;1.97;1.23;;;18.40;23.50;;;;;;2268377;61;20693;-61
2023/11/29 02:41:38;0.00;0.00;0.62;0.00;0.00;0.62;1.80;1.37;;;18.40;23.50;;;;;;2268044;61;20445;-60
2023/11/29 02:44:23;0.00;0.00;0.62;0.00;0.00;0.62;1.70;1.30;;;18.40;23.50;;;;;;2268411;61;20887;-57
2023/11/29 02:47:07;0.00;0.00;0.62;0.00;0.00;0.62;1.60;1.07;;;18.40;23.50;;;;;;2268189;61;20417;-59
2023/11/29 02:49:52;0.00;0.00;0.62;0.00;0.00;0.62;1.70;1.13;;;18.40;23.50;;;;;;2265307;61;20355;-62
2023/11/29 02:52:37;0.00;0.00;0.62;0.00;0.00;0.62;1.97;1.20;;;18.40;23.50;;;;;;2268012;61;20779;-62
2023/11/29 02:55:22;0.00;0.00;0.62;0.00;0.00;0.62;1.60;1.20;;;18.40;23.50;;;;;;2267907;61;20775;-61
2023/11/29 02:58:09;0.00;0.00;0.62;0.00;0.00;0.62;1.80;1.10;;;18.50;23.50;;;;;;2268244;61;20371;-59
2023/11/29 03:00:53;0.00;0.00;0.62;0.00;0.00;0.62;1.90;1.30;;;18.50;23.60;;;;;;2268279;61;20467;-62
2023/11/29 03:03:38;0.00;0.00;0.62;0.00;0.00;0.62;1.97;1.37;;;18.50;23.50;;;;;;2267757;61;20390;-60
2023/11/29 03:06:22;0.00;0.00;0.62;0.00;0.00;0.62;1.70;1.00;;;18.50;23.50;;;;;;2265239;61;20889;-62
2023/11/29 03:09:07;0.00;0.00;0.62;0.00;0.00;0.62;1.63;1.10;;;18.50;23.50;;;;;;2268332;61;20473;-65
2023/11/29 03:11:51;0.00;0.00;0.62;0.00;0.00;0.62;1.87;1.13;;;18.50;23.50;;;;;;2268782;61;20405;-61
2023/11/29 03:14:37;0.00;0.00;0.62;0.00;0.00;0.62;1.73;1.07;;;18.50;23.50;;;;;;2269043;61;20917;-59
2023/11/29 03:17:22;0.00;0.00;0.62;0.00;0.00;0.62;1.63;1.10;;;18.50;23.50;;;;;;2268631;61;20399;-58
2023/11/29 03:20:09;0.00;0.00;0.62;0.00;0.00;0.62;2.27;1.23;;;18.50;24.00;;;;;;2265662;61;20433;-59
2023/11/29 03:22:53;0.00;0.00;0.62;0.00;0.00;0.62;2.20;1.43;;;18.50;23.50;;;;;;2268473;61;20931;-57
2023/11/29 03:25:38;0.00;0.00;0.62;0.00;0.00;0.62;1.73;1.00;;;18.50;23.50;;;;;;2268802;61;20395;-62
2023/11/29 03:28:23;0.00;0.00;0.62;0.00;0.00;0.62;1.50;0.90;;;18.50;23.50;;;;;;2265846;61;20367;-60
2023/11/29 03:31:09;0.00;0.00;0.62;0.00;0.00;0.62;1.83;1.20;;;18.50;24.10;;;;;;2268652;61;20401;-62
2023/11/29 03:33:53;0.00;0.00;0.62;0.00;0.00;0.62;1.50;1.07;;;18.40;23.50;;;;;;2265345;61;20791;-60
2023/11/29 03:36:39;0.00;0.00;0.62;0.00;0.00;0.62;1.77;1.30;;;18.40;23.40;;;;;;2269091;61;20762;-62
2023/11/29 03:39:23;0.00;0.00;0.62;0.00;0.00;0.62;1.70;1.10;;;18.50;23.50;;;;;;2268550;61;20926;-61
2023/11/29 03:42:08;0.00;0.00;0.62;0.00;0.00;0.62;1.60;1.00;;;18.40;23.50;;;;;;2268746;61;20383;-61
2023/11/29 03:44:52;0.00;0.00;0.62;0.00;0.00;0.62;1.90;1.20;;;18.40;24.00;;;;;;2269035;61;20363;-61
2023/11/29 03:47:38;0.00;0.00;0.62;0.00;0.00;0.62;2.00;1.10;;;18.40;23.50;;;;;;2268762;61;20943;-59
2023/11/29 03:50:23;0.00;0.00;0.62;0.00;0.00;0.62;1.63;1.07;;;18.50;23.50;;;;;;2268991;61;20509;-60
2023/11/29 03:53:08;0.00;0.00;0.62;0.00;0.00;0.62;1.50;0.93;;;18.40;23.50;;;;;;2268466;61;20425;-60
2023/11/29 03:55:53;0.00;0.00;0.62;0.00;0.00;0.62;1.63;1.10;;;18.40;23.50;;;;;;2268816;61;20382;-59
2023/11/29 03:58:37;0.00;0.00;0.62;0.00;0.00;0.62;1.60;1.00;;;18.40;23.50;;;;;;2268783;61;20387;-61
2023/11/29 04:01:22;0.00;0.00;0.62;0.00;0.00;0.62;1.70;1.00;;;18.40;23.50;;;;;;2268707;61;20439;-62
2023/11/29 04:04:08;0.00;0.00;0.62;0.00;0.00;0.62;1.73;1.13;;;18.40;23.50;;;;;;2268884;61;20408;-58
2023/11/29 04:06:52;0.00;0.00;0.62;0.00;0.00;0.62;1.90;1.20;;;18.40;23.50;;;;;;2268832;61;20363;-61
2023/11/29 04:09:37;0.00;0.00;0.62;0.00;0.00;0.62;1.60;1.07;;;18.40;23.50;;;;;;2264779;61;20363;-58
2023/11/29 04:12:22;0.00;0.00;0.62;0.00;0.00;0.62;1.93;1.10;;;18.40;23.50;;;;;;2261320;61;20388;-60
2023/11/29 04:15:07;0.00;0.00;0.62;0.00;0.00;0.62;1.70;1.00;;;18.40;23.50;;;;;;2261670;61;20372;-61
2023/11/29 04:17:52;0.00;0.00;0.62;0.00;0.00;0.62;2.37;1.20;;;18.40;23.50;;;;;;2261436;61;20438;-61
2023/11/29 04:20:38;0.00;0.00;0.62;0.00;0.00;0.62;1.60;1.00;;;18.40;23.50;;;;;;2264413;61;20391;-58
2023/11/29 04:23:23;0.00;0.00;0.62;0.00;0.00;0.62;1.60;0.93;;;18.40;23.50;;;;;;2260892;61;20718;-59
2023/11/29 04:26:09;0.00;0.00;0.62;0.00;0.00;0.62;1.93;1.20;;;18.40;23.50;;;;;;2261610;61;20383;-58
2023/11/29 04:28:54;0.00;0.00;0.62;0.00;0.00;0.62;1.60;1.07;;;18.40;23.50;;;;;;2264255;61;20938;-59
2023/11/29 04:31:39;0.00;0.00;0.62;0.00;0.00;0.62;1.87;1.00;;;18.40;23.50;;;;;;2263922;61;21031;-60
2023/11/29 04:34:24;0.00;0.00;0.62;0.00;0.00;0.62;1.60;1.10;;;18.40;23.50;;;;;;2264953;61;20411;-59
2023/11/29 04:37:10;0.00;0.00;0.62;0.00;0.00;0.62;1.50;0.80;;;18.40;23.50;;;;;;2264713;61;20458;-62
2023/11/29 04:39:55;0.00;0.00;0.62;0.00;0.00;0.62;1.70;1.00;;;18.40;23.50;;;;;;2265172;61;20437;-61
2023/11/29 04:42:40;0.00;0.00;0.62;0.00;0.00;0.62;1.43;0.80;;;18.40;23.50;;;;;;2265064;61;20410;-60
2023/11/29 04:45:25;0.00;0.00;0.62;0.00;0.00;0.62;2.07;1.20;;;18.40;23.50;;;;;;2268306;61;20975;-64
2023/11/29 04:48:09;0.00;0.00;0.62;0.00;0.00;0.62;1.60;1.10;;;18.40;23.50;;;;;;2268692;61;20741;-58
2023/11/29 04:50:54;0.00;0.00;0.62;0.00;0.00;0.62;1.43;0.80;;;18.40;23.50;;;;;;2265405;61;20447;-58
2023/11/29 04:53:40;0.00;0.00;0.62;0.00;0.00;0.62;1.63;1.10;;;18.40;23.50;;;;;;2268121;61;20386;-58
2023/11/29 04:56:25;0.00;0.00;0.62;0.00;0.00;0.62;1.60;1.07;;;18.40;23.50;;;;;;2268636;61;20378;-61
2023/11/29 04:59:10;0.00;0.00;0.62;0.00;0.00;0.62;1.57;1.00;;;18.40;23.50;;;;;;2268741;61;20387;-61
2023/11/29 05:01:55;0.00;0.00;0.62;0.00;0.00;0.62;1.77;1.10;;;18.40;23.50;;;;;;2268012;61;20391;-60
2023/11/29 05:04:39;0.00;0.00;0.62;0.00;0.00;0.62;1.87;1.10;;;18.40;23.50;;;;;;2268684;61;20379;-64
2023/11/29 05:07:23;0.00;0.00;0.62;0.00;0.00;0.62;2.03;1.17;;;18.40;23.50;;;;;;2268456;61;20363;-59
2023/11/29 05:10:10;0.00;0.00;0.62;0.00;0.00;0.62;1.50;1.00;;;18.40;23.50;;;;;;2268756;61;20363;-59
2023/11/29 05:12:55;0.00;0.00;0.62;0.00;0.00;0.62;1.67;1.00;;;18.40;24.10;;;;;;2268218;61;20387;-59
2023/11/29 05:15:41;0.00;0.00;0.62;0.00;0.00;0.62;1.40;0.97;;;18.40;23.60;;;;;;2268467;61;20367;-59
2023/11/29 05:18:26;0.00;0.00;0.62;0.00;0.00;0.62;1.60;1.10;;;18.40;23.50;;;;;;2268489;61;20355;-59
2023/11/29 05:21:11;0.00;0.00;0.62;0.00;0.00;0.62;1.57;1.20;;;18.30;23.50;;;;;;2268650;61;20867;-65
2023/11/29 05:23:55;0.00;0.00;0.62;0.00;0.00;0.62;2.00;1.20;;;18.30;23.50;;;;;;2268099;61;20429;-60
2023/11/29 05:26:41;0.00;0.00;0.62;0.00;0.00;0.62;1.50;1.00;;;18.30;24.00;;;;;;2268502;61;20814;-61
2023/11/29 05:29:26;0.00;0.00;0.62;0.00;0.00;0.62;2.03;1.40;;;18.30;23.50;;;;;;2268076;61;20383;-64
2023/11/29 05:32:10;0.00;0.00;0.62;0.00;0.00;0.62;1.73;1.10;;;18.30;23.50;;;;;;2268003;61;20386;-58
2023/11/29 05:34:56;0.00;0.00;0.62;0.00;0.00;0.62;1.80;1.07;;;18.30;23.50;;;;;;2268547;61;20780;-61
2023/11/29 05:37:41;0.00;0.00;0.62;0.00;0.00;0.62;1.70;1.03;;;18.30;23.50;;;;;;2268161;61;20359;-60
2023/11/29 05:40:25;0.00;0.00;0.62;0.00;0.00;0.62;1.80;1.00;;;18.30;23.50;;;;;;2268368;61;20667;-57
2023/11/29 05:43:11;0.00;0.00;0.62;0.00;0.00;0.62;1.70;1.20;;;18.30;23.50;;;;;;2268137;61;20478;-61
2023/11/29 05:45:56;0.00;0.00;0.62;0.00;0.00;0.62;1.90;1.20;;;18.30;23.60;;;;;;2268226;61;20413;-59
2023/11/29 05:48:41;0.00;0.00;0.62;0.00;0.00;0.62;1.77;1.10;;;18.30;23.50;;;;;;2268701;61;20398;-58
2023/11/29 05:51:26;0.00;0.00;0.62;0.00;0.00;0.62;1.50;0.93;;;18.30;23.50;;;;;;2268568;61;20873;-60
2023/11/29 05:54:10;0.00;0.00;0.62;0.00;0.00;0.62;1.93;1.03;;;18.30;23.50;;;;;;2268352;61;20387;-61
2023/11/29 05:56:55;0.00;0.00;0.62;0.00;0.00;0.62;1.50;0.97;;;18.30;23.50;;;;;;2268192;61;20403;-62
2023/11/29 05:59:41;0.00;0.00;0.62;0.00;0.00;0.62;1.83;1.23;;;18.30;23.50;;;;;;2268080;61;20874;-58
2023/11/29 06:02:26;0.00;0.00;0.62;0.00;0.00;0.62;1.70;1.10;;;18.30;23.60;;;;;;2267886;61;20395;-61
2023/11/29 06:05:11;0.00;0.00;0.62;0.00;0.00;0.62;1.70;1.10;;;18.30;23.60;;;;;;2268483;61;20382;-61
2023/11/29 06:07:56;0.00;0.00;0.62;0.00;0.00;0.62;1.70;1.00;;;18.30;23.60;;;;;;2268211;61;20358;-61
2023/11/29 06:10:42;0.00;0.00;0.62;0.00;0.00;0.62;2.10;1.27;;;18.30;23.60;;;;;;2268551;61;20359;-59
2023/11/29 06:13:27;0.00;0.00;0.62;0.00;0.00;0.62;1.53;1.00;;;18.30;23.60;;;;;;2268028;61;20433;-57
2023/11/29 06:16:14;0.00;0.00;0.62;0.00;0.00;0.62;1.90;1.23;;;18.30;23.60;;;;;;2268625;61;21015;-58
2023/11/29 06:18:58;0.00;0.00;0.62;0.00;0.00;0.62;1.57;0.90;;;18.30;23.60;;;;;;2268438;61;20367;-61
2023/11/29 06:21:44;0.00;0.00;0.62;0.00;0.00;0.62;1.87;1.10;;;18.30;23.60;;;;;;2264537;61;20899;-59
2023/11/29 06:24:31;0.00;0.00;0.62;0.00;0.00;0.62;1.60;1.00;;;18.30;23.60;;;;;;2266901;61;20887;-62
2023/11/29 06:27:16;0.00;0.00;0.62;0.00;0.00;0.62;1.60;1.00;;;18.30;23.60;;;;;;2268517;61;20386;-60
2023/11/29 06:30:01;0.00;0.00;0.62;0.00;0.00;0.62;1.80;1.20;;;18.30;23.60;;;;;;2268057;61;20359;-61
2023/11/29 06:32:46;0.00;0.00;0.62;0.00;0.00;0.62;1.63;1.00;;;18.30;23.60;;;;;;2268137;61;20420;-62
2023/11/29 06:35:31;0.00;0.00;0.62;0.00;0.00;0.62;1.63;1.03;;;18.30;23.60;;;;;;2268532;61;20395;-56
2023/11/29 06:38:15;0.00;0.00;0.62;0.00;0.00;0.62;1.60;1.10;;;18.30;23.60;;;;;;2268400;61;20877;-61
2023/11/29 06:41:00;0.00;0.00;0.62;0.00;0.00;0.62;1.70;1.10;;;18.30;23.70;;;;;;2268530;61;20536;-61
2023/11/29 06:43:44;0.00;0.00;0.62;0.00;0.00;0.62;1.50;1.20;;;18.30;23.60;;;;;;2267988;61;20443;-59
2023/11/29 06:46:29;0.00;0.00;0.62;0.00;0.00;0.62;1.40;0.80;;;18.30;23.70;;;;;;2267628;61;20397;-58
2023/11/29 06:49:16;0.00;0.00;0.62;0.00;0.00;0.62;1.50;0.93;;;18.30;23.70;;;;;;2269430;61;20937;-65
2023/11/29 06:52:02;0.00;0.00;0.62;0.00;0.00;0.62;1.63;0.90;;;18.30;23.70;;;;;;2268401;61;20379;-61
2023/11/29 06:54:47;0.00;0.00;0.62;0.00;0.00;0.62;1.50;0.90;;;18.30;23.70;;;;;;2269171;61;20382;-60
2023/11/29 06:57:31;0.00;0.00;0.62;0.00;0.00;0.62;1.90;1.20;;;18.30;23.70;;;;;;2269012;61;20359;-56
2023/11/29 07:00:17;0.00;0.00;0.62;0.00;0.00;0.62;1.80;1.17;;;18.30;23.70;;;;;;2268796;61;20386;-58
2023/11/29 07:03:02;0.00;0.00;0.62;0.00;0.00;0.62;1.63;1.03;;;18.30;23.70;;;;;;2268791;61;20705;-61
2023/11/29 07:05:48;0.00;0.00;0.62;0.00;0.00;0.62;1.40;0.90;;;18.30;23.70;;;;;;2268758;61;20398;-60
2023/11/29 07:08:33;0.00;0.00;0.62;0.00;0.00;0.62;2.00;1.23;;;18.30;23.70;;;;;;2269294;61;20395;-61
2023/11/29 07:11:17;0.00;0.00;0.62;0.00;0.00;0.62;1.43;0.80;;;18.30;23.70;;;;;;2269335;61;20481;-57
2023/11/29 07:14:03;0.00;0.00;0.62;0.00;0.00;0.62;1.60;1.00;;;18.30;23.70;;;;;;2268581;61;20363;-60
2023/11/29 07:16:48;0.00;0.00;0.62;0.00;0.00;0.62;1.90;1.10;;;18.30;23.70;;;;;;2269120;61;20386;-56
2023/11/29 07:19:33;0.00;0.00;0.62;0.00;0.00;0.62;1.50;0.80;;;18.30;23.70;;;;;;2269066;61;20838;-62
2023/11/29 07:22:19;0.00;0.00;0.62;0.00;0.00;0.62;1.90;1.30;;;18.30;23.70;;;;;;2265142;61;20405;-60
2023/11/29 07:25:06;0.00;0.00;0.62;0.00;0.00;0.62;1.60;1.10;;;18.30;23.70;;;;;;2268952;61;20464;-59
2023/11/29 07:27:51;0.00;0.00;0.62;0.00;0.00;0.62;1.80;1.20;;;18.30;23.70;;;;;;2268067;61;20393;-59
2023/11/29 07:30:35;0.00;0.00;0.62;0.00;0.00;0.62;1.83;1.10;;;18.30;23.70;;;;;;2269451;61;20417;-59
2023/11/29 07:33:20;0.00;0.00;0.62;0.00;0.00;0.62;1.57;0.90;;;18.30;24.20;;;;;;2268803;61;20819;-59
2023/11/29 07:36:10;0.00;0.00;0.62;0.00;0.00;0.62;1.77;1.00;;;18.30;23.70;;;;;;2268937;61;20805;-65
2023/11/29 07:38:56;0.00;0.00;0.62;0.00;0.00;0.62;1.73;1.13;;;18.30;23.70;;;;;;2269060;61;20363;-60
2023/11/29 07:41:40;0.00;0.00;0.62;0.00;0.00;0.62;1.93;1.33;;;18.30;23.70;;;;;;2268863;61;20940;-61
2023/11/29 07:44:25;0.00;0.00;0.62;0.00;0.00;0.62;1.90;1.20;;;18.30;23.70;;;;;;2268767;61;20421;-58
2023/11/29 07:47:10;0.00;0.00;0.62;0.00;0.00;0.62;1.93;1.17;;;18.30;23.70;;;;;;2268918;61;20417;-61
2023/11/29 07:49:55;0.00;0.00;0.62;0.00;0.00;0.62;2.60;1.57;;;18.30;23.70;;;;;;2268826;61;20413;-65
2023/11/29 07:52:40;0.00;0.00;0.62;0.00;0.00;0.62;2.63;1.57;;;18.30;23.70;;;;;;2268400;61;20414;-60
2023/11/29 07:55:26;0.00;0.00;0.62;0.00;0.00;0.62;2.73;1.40;;;18.20;23.70;;;;;;2540513;53;20399;-58
2023/11/29 07:58:10;0.00;0.00;0.62;0.00;0.00;0.62;2.47;1.47;;;18.30;23.70;;;;;;2264660;61;20422;-62
2023/11/29 08:00:55;0.00;0.00;0.62;0.00;0.00;0.62;2.13;1.40;;;18.30;23.70;;;;;;2264932;61;20412;-59
2023/11/29 08:03:40;0.00;0.00;0.62;0.00;0.00;0.62;2.67;1.70;;;18.30;23.80;;;;;;2264430;61;20514;-58
2023/11/29 08:06:25;0.00;0.00;0.62;0.00;0.00;0.62;2.60;1.70;;;18.20;23.70;;;;;;2264872;61;20451;-61
2023/11/29 08:09:10;0.00;0.00;0.62;0.00;0.00;0.62;3.13;1.50;;;18.30;23.80;;;;;;2264773;61;20457;-54
2023/11/29 08:11:55;0.00;0.00;0.62;0.00;0.00;0.62;2.13;1.37;;;18.20;23.70;;;;;;2264701;61;20384;-59
2023/11/29 08:14:40;0.00;0.00;0.62;0.00;0.00;0.62;2.33;1.53;;;18.30;23.80;;;;;;2265120;61;20368;-63
2023/11/29 08:17:25;0.00;0.00;0.62;0.00;0.00;0.62;2.43;1.37;;;18.20;23.70;;;;;;2265018;61;20899;-62
2023/11/29 08:20:10;0.00;0.00;0.62;0.00;0.00;0.62;2.10;1.30;;;18.20;23.70;;;;;;2261642;61;20395;-62
2023/11/29 08:22:55;0.00;0.00;0.62;0.00;0.00;0.62;2.50;1.57;;;18.20;23.70;;;;;;2264592;61;20391;-60
2023/11/29 08:25:39;0.00;0.00;0.62;0.00;0.00;0.62;2.17;1.63;;;18.20;23.70;;;;;;2265111;61;20965;-62
2023/11/29 08:28:25;0.00;0.00;0.62;0.00;0.00;0.62;2.23;1.60;;;18.20;23.70;;;;;;2264902;61;20382;-62
2023/11/29 08:31:09;0.00;0.00;0.62;0.00;0.00;0.62;2.23;1.43;;;18.20;23.70;;;;;;2265004;61;20368;-60
2023/11/29 08:33:54;0.00;0.00;0.62;0.00;0.00;0.62;2.23;1.60;;;18.20;23.70;;;;;;2264801;61;20954;-59
2023/11/29 08:36:38;0.00;0.00;0.62;0.00;0.00;0.62;2.70;1.53;;;18.20;23.70;;;;;;2264892;61;20884;-60
2023/11/29 08:39:23;0.00;0.00;0.62;0.00;0.00;0.62;2.57;1.83;;;18.30;23.80;;;;;;2264889;61;20923;-61
2023/11/29 08:42:08;0.00;0.00;0.62;0.00;0.00;0.62;2.57;1.40;;;18.20;23.80;;;;;;2264147;61;20380;-60
2023/11/29 08:44:53;0.00;0.00;0.62;0.00;0.00;0.62;2.60;1.63;;;18.30;23.80;;;;;;2265013;61;20404;-56
2023/11/29 08:47:38;0.00;0.00;0.62;0.00;0.00;0.62;2.90;1.70;;;18.30;23.80;;;;;;2264675;61;20425;-56
2023/11/29 08:50:23;0.00;0.00;0.62;0.00;0.00;0.62;2.23;1.30;;;18.20;23.80;;;;;;2261345;61;20371;-59
2023/11/29 08:53:08;0.00;0.00;0.62;0.00;0.00;0.62;2.90;1.87;;;18.20;23.80;;;;;;2264161;61;20380;-59
2023/11/29 08:55:52;0.00;0.00;0.62;0.00;0.00;0.62;3.70;1.87;;;18.20;23.80;;;;;;2264888;61;20445;-61
2023/11/29 08:58:36;0.00;0.00;0.62;0.00;0.00;0.62;2.07;1.60;;;18.30;23.80;;;;;;2264106;61;21323;-61
2023/11/29 09:01:22;0.00;0.00;0.62;0.00;0.00;0.62;2.57;1.57;;;18.30;23.80;;;;;;2261483;61;20392;-59
2023/11/29 09:04:07;0.00;0.00;0.62;0.00;0.00;0.62;2.23;1.67;;;18.20;23.80;;;;;;2264268;61;20360;-59
2023/11/29 09:06:51;0.00;0.00;0.62;0.00;0.00;0.62;2.70;1.30;;;18.20;23.80;;;;;;2264507;61;20406;-57
2023/11/29 09:09:36;0.00;0.00;0.62;0.00;0.00;0.62;2.20;1.30;;;18.30;23.80;;;;;;2264517;61;20919;-58
2023/11/29 09:12:22;0.00;0.00;0.62;0.00;0.00;0.62;2.80;1.60;;;18.30;23.80;;;;;;2264025;61;20430;-60
2023/11/29 09:15:09;0.00;0.00;0.62;0.00;0.00;0.62;2.13;1.40;;;18.30;23.80;;;;;;2264624;61;20383;-62
2023/11/29 09:17:55;0.00;0.00;0.62;0.00;0.00;0.62;2.63;1.70;;;18.20;23.80;;;;;;2264687;61;20380;-60
2023/11/29 09:20:40;0.00;0.00;0.62;0.00;0.00;0.62;2.47;1.67;;;18.20;24.30;;;;;;2264228;61;20781;-58
2023/11/29 09:23:25;0.00;0.00;0.62;0.00;0.00;0.62;2.37;1.40;;;18.20;23.80;;;;;;2264336;61;20996;-59
2023/11/29 09:26:12;0.00;0.00;0.62;0.00;0.00;0.62;1.93;1.30;;;18.20;23.80;;;;;;2264391;61;20360;-58
2023/11/29 09:28:56;0.00;0.00;0.62;0.00;0.00;0.62;2.33;1.53;;;18.20;23.80;;;;;;2264917;61;20386;-60
2023/11/29 09:31:41;0.00;0.00;0.62;0.00;0.00;0.62;2.30;1.50;;;18.20;23.80;;;;;;2264084;61;20348;-61
2023/11/29 09:34:27;0.00;0.00;0.62;0.00;0.00;0.62;2.23;1.37;;;18.20;23.80;;;;;;2264312;61;20376;-58
2023/11/29 09:37:12;0.00;0.00;0.62;0.00;0.00;0.62;1.97;1.30;;;18.30;24.40;;;;;;2264559;61;20376;-59
2023/11/29 09:39:57;0.00;0.00;0.62;0.00;0.00;0.62;2.60;1.60;;;18.20;23.80;;;;;;2264564;61;20904;-59
2023/11/29 09:42:43;0.00;0.00;0.62;0.00;0.00;0.62;2.37;1.60;;;18.30;23.90;;;;;;2260686;61;20817;-60
2023/11/29 09:45:27;0.00;0.00;0.62;0.00;0.00;0.62;2.40;1.77;;;18.30;23.90;;;;;;2264126;61;20785;-60
2023/11/29 09:48:13;0.00;0.00;0.62;0.00;0.00;0.62;2.00;1.20;;;18.20;23.80;;;;;;2264495;61;20422;-60
2023/11/29 09:50:59;0.00;0.00;0.62;0.00;0.00;0.62;2.33;1.50;;;18.30;23.90;;;;;;2264624;61;20368;-58
2023/11/29 09:53:43;0.00;0.00;0.62;0.00;0.00;0.62;2.43;1.83;;;18.30;23.90;;;;;;2264232;61;20395;-61
2023/11/29 09:56:28;0.00;0.00;0.62;0.00;0.00;0.62;2.20;1.63;;;18.20;23.80;;;;;;2263991;61;20457;-62
2023/11/29 09:59:13;0.00;0.00;0.62;0.00;0.00;0.62;2.40;1.70;;;18.30;23.90;;;;;;2264346;61;20899;-61
2023/11/29 10:02:03;0.00;0.00;0.62;0.00;0.00;0.62;2.83;2.20;;;18.30;23.90;;;;;;2264153;61;20426;-60
2023/11/29 10:04:48;0.00;0.00;0.62;0.00;0.00;0.62;2.10;1.63;;;18.30;23.90;;;;;;2263671;61;20424;-60
2023/11/29 10:07:34;0.00;0.00;0.62;0.00;0.00;0.62;2.00;1.50;;;18.20;23.80;;;;;;2264561;61;20368;-61
2023/11/29 10:10:19;0.00;0.00;0.62;0.00;0.00;0.62;2.40;1.47;;;18.30;23.90;;;;;;2264333;61;20524;-61
2023/11/29 10:13:04;0.00;0.00;0.62;0.00;0.00;0.62;1.97;1.40;;;18.30;23.90;;;;;;2264095;61;20442;-62
2023/11/29 10:15:50;0.00;0.00;0.62;0.00;0.00;0.62;2.70;1.70;;;18.30;23.90;;;;;;2264422;61;20359;-59
2023/11/29 10:18:34;0.00;0.00;0.62;0.00;0.00;0.62;2.57;1.90;;;18.30;23.90;;;;;;2264091;61;20369;-59
2023/11/29 10:21:19;0.00;0.00;0.62;0.00;0.00;0.62;2.20;1.30;;;18.20;23.80;;;;;;2264286;61;20387;-60
2023/11/29 10:24:06;0.00;0.00;0.62;0.00;0.00;0.62;2.60;1.77;;;18.30;23.90;;;;;;2264490;61;20445;-62
2023/11/29 10:26:51;0.00;0.00;0.62;0.00;0.00;0.62;2.63;1.80;;;18.30;23.90;;;;;;2264183;61;20418;-59
2023/11/29 10:29:35;0.00;0.00;0.62;0.00;0.00;0.62;2.17;1.87;;;18.20;23.80;;;;;;2264529;61;20398;-60
2023/11/29 10:32:20;0.00;0.00;0.62;0.00;0.00;0.62;2.33;1.70;;;18.20;23.80;;;;;;2264065;61;20565;-60
2023/11/29 10:35:10;0.00;0.00;0.62;0.00;0.00;0.62;1.80;1.40;;;18.30;23.90;;;;;;2264202;61;20411;-57
2023/11/29 10:37:59;0.00;0.00;0.62;0.00;0.00;0.62;2.13;1.60;;;18.30;23.90;;;;;;2266865;61;20409;-55
2023/11/29 10:40:45;0.00;0.00;0.62;0.00;0.00;0.62;2.47;1.30;;;18.30;23.90;;;;;;2269362;61;20409;-59
2023/11/29 10:43:34;0.00;0.00;0.62;0.00;0.00;0.62;2.20;1.43;;;18.30;23.90;;;;;;2269328;61;20394;-57
2023/11/29 10:46:25;0.00;0.00;0.62;0.00;0.00;0.62;2.30;1.47;;;18.30;24.40;;;;;;2266727;61;20379;-57
2023/11/29 10:49:18;0.00;0.00;0.62;0.00;0.00;0.62;2.70;1.97;;;18.30;23.90;;;;;;2269676;61;20421;-58
2023/11/29 10:52:04;0.00;0.00;0.62;0.00;0.00;0.62;3.07;2.00;;;18.30;23.90;;;;;;2269130;61;20379;-61